Date,TemperatureHighF,TemperatureAvgF,TemperatureLowF,DewpointHighF,DewpointAvgF,DewpointLowF,HumidityHigh,HumidityAvg,HumidityLow,PressureMaxIn,PressureMinIn,WindSpeedMaxMPH,WindSpeedAvgMPH,GustSpeedMaxMPH,PrecipitationSumIn
2013-1-1,83.0,74.7,69.0,67.0,64.8,63.0,85,72,56,30.12,30.00,14,9,29,0.01
2013-1-2,79.0,73.8,70.0,67.0,64.4,60.0,87,73,52,30.08,29.96,18,14,33,0.08
2013-1-3,80.0,74.4,69.0,66.0,63.0,60.0,85,68,57,30.09,29.98,19,13,35,0.03
2013-1-4,80.0,73.1,68.0,66.0,63.7,61.0,86,73,58,30.13,30.01,27,18,58,0.07
2013-1-5,80.0,75.0,71.0,64.0,61.2,59.0,73,62,48,30.14,30.03,34,25,54,0.01
2013-1-6,79.0,75.3,73.0,64.0,61.0,56.0,72,61,51,30.11,29.99,31,24,52,0.00
2013-1-7,81.0,75.8,72.0,65.0,60.7,54.0,77,61,40,30.08,29.95,27,21,49,0.00
2013-1-8,81.0,75.2,71.0,64.0,60.8,55.0,72,61,52,30.02,29.89,25,18,42,0.00
2013-1-9,81.0,75.7,72.0,65.0,63.5,61.0,75,66,54,30.00,29.90,21,18,40,0.00
2013-1-10,82.0,76.1,72.0,64.0,61.0,54.0,69,60,38,30.00,29.91,23,18,40,0.00
2013-1-11,81.0,74.7,70.0,66.0,62.2,59.0,80,66,51,29.97,29.88,14,9,27,0.00
2013-1-12,83.0,76.3,70.0,68.0,65.3,62.0,79,69,57,29.99,29.91,12,8,26,0.00
2013-1-13,82.0,76.9,73.0,68.0,65.3,63.0,77,68,52,30.00,29.93,13,9,26,0.00
2013-1-14,84.0,76.1,71.0,71.0,68.0,66.0,85,77,62,30.01,29.90,16,10,26,0.00
2013-1-15,84.0,74.8,70.0,68.0,64.8,62.0,86,72,52,29.96,29.86,12,7,21,0.00
2013-1-16,80.0,73.3,67.0,64.0,59.6,53.0,80,64,45,29.98,29.86,12,8,18,0.00
2013-1-17,82.0,73.5,67.0,63.0,60.2,58.0,77,64,47,29.94,29.85,13,8,19,0.00
2013-1-18,81.0,73.1,66.0,62.0,58.2,54.0,78,61,39,29.96,29.84,12,8,26,0.00
2013-1-19,79.0,73.3,68.0,61.0,52.6,50.0,70,49,38,30.04,29.92,20,16,33,0.00
2013-1-20,79.0,72.8,69.0,57.0,54.0,49.0,63,52,36,30.07,29.98,20,16,37,0.00
2013-1-21,81.0,73.7,69.0,61.0,57.3,54.0,66,57,42,30.14,30.03,22,14,40,0.00
2013-1-22,81.0,74.3,69.0,63.0,58.9,55.0,68,59,50,30.14,30.04,20,11,31,0.00
2013-1-23,79.0,73.8,69.0,65.0,61.3,57.0,73,65,58,30.08,30.00,22,14,37,0.00
2013-1-24,81.0,74.3,69.0,66.0,63.0,60.0,81,68,54,30.09,30.01,20,16,35,0.01
2013-1-25,82.0,75.4,70.0,66.0,63.2,61.0,78,66,49,30.09,30.01,19,12,31,0.01
2013-1-26,82.0,75.0,68.0,64.0,61.1,58.0,73,63,51,30.05,29.96,18,10,32,0.00
2013-1-27,83.0,75.5,68.0,67.0,62.8,58.0,74,65,53,30.02,29.92,19,10,28,0.00
2013-1-28,79.0,74.9,69.0,68.0,63.9,58.0,82,69,55,30.01,29.91,12,8,25,0.43
2013-1-29,80.0,71.3,69.0,70.0,65.2,62.0,87,81,70,30.04,29.94,12,6,26,0.33
2013-1-30,82.0,74.6,69.0,69.0,65.1,62.0,86,73,60,30.09,30.02,9,5,15,0.03
2013-1-31,82.0,75.0,71.0,67.0,64.9,63.0,82,71,58,30.10,30.02,16,12,32,0.01
2013-2-1,82.0,75.1,70.0,65.0,59.3,54.0,76,59,41,30.13,30.03,22,15,41,0.00
2013-2-2,79.0,74.3,71.0,61.0,56.7,54.0,65,55,45,30.15,30.05,24,18,42,0.00
2013-2-3,80.0,72.6,66.0,58.0,55.6,53.0,67,56,41,30.19,30.08,22,12,40,0.00
2013-2-4,79.0,73.8,70.0,62.0,58.2,53.0,69,59,47,30.12,30.05,26,14,43,0.00
2013-2-5,80.0,73.8,68.0,62.0,59.2,56.0,68,60,47,30.10,30.01,20,12,36,0.00
2013-2-6,83.0,74.3,68.0,63.0,61.5,60.0,81,65,48,30.11,30.01,16,10,27,0.00
2013-2-7,82.0,75.3,70.0,66.0,62.5,60.0,73,65,52,30.14,30.02,21,14,37,0.00
2013-2-8,81.0,74.6,68.0,65.0,61.8,57.0,74,65,55,30.15,30.04,19,12,33,0.00
2013-2-9,81.0,74.0,68.0,64.0,60.9,58.0,72,64,50,30.15,30.05,16,11,29,0.00
2013-2-10,82.0,75.3,69.0,63.0,60.9,58.0,72,62,45,30.21,30.08,22,15,42,0.00
2013-2-11,81.0,73.3,68.0,64.0,60.9,59.0,78,66,52,30.22,30.12,18,12,32,0.00
2013-2-12,80.0,72.1,68.0,61.0,57.4,53.0,73,60,44,30.20,30.09,18,13,32,0.01
2013-2-13,76.0,71.3,67.0,58.0,53.8,49.0,63,54,46,30.15,30.03,18,11,30,0.01
2013-2-14,78.0,71.6,65.0,60.0,56.1,52.0,68,59,47,30.12,30.01,18,11,30,0.00
2013-2-15,82.0,74.8,68.0,63.0,58.0,52.0,66,56,43,30.12,30.01,25,15,45,0.00
2013-2-16,81.0,75.1,71.0,62.0,58.9,55.0,70,58,43,30.14,30.03,24,19,44,0.00
2013-2-17,81.0,74.4,70.0,61.0,57.6,54.0,63,56,46,30.15,30.04,24,19,55,0.00
2013-2-18,81.0,74.0,69.0,62.0,57.5,54.0,70,57,42,30.15,30.04,26,19,48,0.01
2013-2-19,81.0,74.1,70.0,59.0,55.3,49.0,67,53,37,30.14,30.05,23,16,40,0.01
2013-2-20,80.0,74.1,70.0,62.0,58.5,56.0,68,59,46,30.14,30.06,25,15,43,0.00
2013-2-21,81.0,74.4,69.0,64.0,60.7,58.0,69,63,54,30.14,30.07,18,13,42,0.00
2013-2-22,81.0,75.3,72.0,65.0,61.0,57.0,72,62,47,30.14,30.03,24,17,42,0.00
2013-2-23,79.0,74.3,70.0,62.0,60.1,55.0,73,62,52,30.14,30.03,23,17,40,0.00
2013-2-24,81.0,74.3,70.0,62.0,59.2,57.0,69,60,48,30.13,30.01,22,14,39,0.00
2013-2-25,82.0,74.4,68.0,63.0,58.6,56.0,68,59,46,30.16,30.05,22,13,39,0.00
2013-2-26,81.0,74.1,67.0,62.0,57.7,55.0,68,57,42,30.17,30.07,26,15,45,0.00
2013-2-27,80.0,74.2,70.0,59.0,56.7,53.0,65,55,43,30.19,30.09,22,19,42,0.00
2013-2-28,81.0,74.7,70.0,59.0,54.8,48.0,62,51,33,30.21,30.10,23,16,40,0.00
2013-3-1,82.0,74.0,70.0,61.0,54.9,51.0,63,52,41,30.19,30.08,22,15,38,0.00
2013-3-2,81.0,74.3,69.0,60.0,53.5,47.0,64,49,36,30.19,30.06,23,17,45,0.00
2013-3-3,80.0,73.8,68.0,58.0,54.0,49.0,64,51,38,30.19,30.10,21,14,37,0.00
2013-3-4,80.0,74.1,69.0,58.0,54.6,50.0,62,51,36,30.20,30.10,21,12,39,0.00
2013-3-5,80.0,73.9,69.0,61.0,56.1,52.0,67,54,40,30.17,30.06,18,12,34,0.00
2013-3-6,80.0,73.8,68.0,62.0,59.9,55.0,70,62,51,30.15,30.07,21,14,34,0.00
2013-3-7,83.0,74.7,70.0,63.0,61.0,58.0,71,63,45,30.11,30.00,16,10,27,0.00
2013-3-8,82.0,74.8,68.0,66.0,62.6,61.0,81,67,52,30.06,29.93,9,6,14,0.00
2013-3-9,81.0,75.3,69.0,67.0,64.9,61.0,84,70,60,30.00,29.91,19,13,32,0.00
2013-3-10,83.0,75.1,68.0,69.0,65.1,61.0,83,72,59,30.05,29.93,14,12,26,0.02
2013-3-11,84.0,75.1,69.0,65.0,63.1,61.0,79,67,53,30.08,29.98,9,7,16,0.00
2013-3-12,82.0,74.7,70.0,66.0,62.7,59.0,78,67,55,30.10,29.99,12,8,21,0.00
2013-3-13,81.0,73.7,68.0,62.0,59.2,57.0,72,61,46,30.10,30.01,13,10,23,0.00
2013-3-14,83.0,73.9,68.0,66.0,61.7,58.0,74,66,52,30.10,30.00,11,5,18,0.00
2013-3-15,81.0,74.8,69.0,66.0,61.8,57.0,77,65,51,30.02,29.93,14,9,20,0.00
2013-3-16,80.0,72.7,69.0,62.0,57.3,51.0,76,59,37,30.04,29.93,15,10,24,0.00
2013-3-17,80.0,72.8,66.0,57.0,54.5,50.0,63,53,39,30.06,29.96,12,8,24,0.00
2013-3-18,81.0,72.5,66.0,60.0,56.3,53.0,68,57,47,30.06,29.96,12,8,21,0.00
2013-3-19,81.0,74.0,68.0,62.0,60.0,56.0,73,62,48,30.05,29.96,14,8,24,0.00
2013-3-20,81.0,74.7,69.0,67.0,63.6,61.0,78,69,60,30.09,29.99,13,7,23,0.00
2013-3-21,85.0,77.7,71.0,68.0,65.7,62.0,78,67,52,30.08,30.00,11,7,21,0.00
2013-3-22,83.0,76.3,71.0,70.0,66.7,62.0,83,73,61,30.07,29.97,10,5,17,0.00
2013-3-23,78.0,74.6,71.0,68.0,65.2,62.0,82,73,61,30.04,29.94,15,9,25,0.00
2013-3-24,79.0,74.6,71.0,66.0,63.2,60.0,79,68,60,30.06,29.96,16,10,26,0.00
2013-3-25,83.0,76.1,71.0,67.0,64.4,61.0,78,67,59,30.04,29.95,16,10,26,0.00
2013-3-26,82.0,75.7,71.0,65.0,63.4,62.0,76,66,56,30.06,29.97,17,9,26,0.00
2013-3-27,82.0,76.3,71.0,64.0,62.8,61.0,71,63,54,30.03,29.96,16,11,28,0.00
2013-3-28,84.0,78.3,72.0,63.0,60.4,56.0,67,55,38,30.06,29.96,21,16,36,0.00
2013-3-29,81.0,73.8,69.0,64.0,61.6,59.0,75,66,52,30.08,30.00,17,10,31,0.00
2013-3-30,79.0,73.5,69.0,66.0,62.9,59.0,79,70,62,30.08,29.99,12,7,21,0.00
2013-3-31,79.0,73.0,67.0,62.0,55.6,51.0,75,56,39,30.06,29.97,17,12,31,0.00
2013-4-1,79.0,72.6,67.0,57.0,54.0,50.0,60,52,45,30.04,29.95,15,11,22,0.00
2013-4-2,79.0,72.6,65.0,56.0,53.2,51.0,68,52,39,30.10,29.99,14,10,27,0.00
2013-4-3,81.0,72.3,66.0,62.0,57.6,54.0,67,60,46,30.12,30.02,16,10,27,0.00
2013-4-4,81.0,74.2,67.0,64.0,60.7,56.0,71,63,53,30.11,30.02,17,11,28,0.00
2013-4-5,82.0,76.1,70.0,65.0,61.9,59.0,73,62,51,30.14,30.04,19,13,34,0.00
2013-4-6,84.0,77.9,74.0,69.0,64.1,61.0,70,63,50,30.15,30.06,24,17,41,0.00
2013-4-7,83.0,77.8,73.0,66.0,64.3,61.0,74,63,49,30.19,30.09,22,16,40,0.00
2013-4-8,85.0,77.3,72.0,65.0,63.1,61.0,73,62,44,30.12,29.99,19,14,32,0.00
2013-4-9,85.0,76.7,71.0,66.0,62.6,60.0,71,62,44,30.09,29.98,21,15,35,0.00
2013-4-10,84.0,77.7,71.0,65.0,61.8,58.0,70,58,45,30.08,29.98,22,15,39,0.00
2013-4-11,85.0,78.0,74.0,66.0,63.8,60.0,73,62,48,30.06,29.96,21,16,37,0.00
2013-4-12,82.0,77.1,71.0,66.0,63.3,58.0,72,63,54,30.00,29.92,21,14,35,0.00
2013-4-13,84.0,77.3,72.0,68.0,66.1,62.0,78,69,58,29.99,29.89,20,8,36,0.00
2013-4-14,84.0,77.5,73.0,71.0,68.4,66.0,81,74,60,30.01,29.92,13,8,24,0.08
2013-4-15,86.0,77.6,70.0,70.0,67.0,65.0,83,71,56,30.08,29.95,8,4,12,0.08
2013-4-16,84.0,77.9,73.0,68.0,66.0,64.0,78,67,54,30.13,30.03,17,11,27,0.00
2013-4-17,83.0,77.1,73.0,69.0,64.6,61.0,73,66,55,30.16,30.06,21,15,39,0.00
2013-4-18,83.0,77.4,73.0,66.0,62.4,60.0,68,60,51,30.15,30.06,22,16,37,0.00
2013-4-19,82.0,76.2,71.0,66.0,62.8,59.0,71,64,58,30.12,30.02,24,16,42,0.00
2013-4-20,82.0,77.4,73.0,67.0,63.0,60.0,75,62,50,30.10,30.04,17,13,28,0.00
2013-4-21,85.0,77.3,70.0,69.0,65.8,64.0,82,69,57,30.08,29.99,7,4,12,0.00
2013-4-22,85.0,78.5,73.0,70.0,67.3,64.0,78,69,57,30.08,29.99,12,7,19,0.00
2013-4-23,85.0,78.6,73.0,70.0,67.7,66.0,81,70,56,30.10,30.02,12,7,18,0.00
2013-4-24,85.0,77.8,73.0,69.0,66.3,63.0,78,68,55,30.12,30.02,14,8,27,0.00
2013-4-25,83.0,78.1,74.0,67.0,63.4,60.0,74,61,50,30.09,30.00,21,16,36,0.00
2013-4-26,82.0,77.2,73.0,64.0,61.1,57.0,65,58,49,30.06,29.99,23,16,38,0.00
2013-4-27,84.0,77.7,73.0,64.0,62.3,60.0,66,59,51,30.08,29.97,19,14,32,0.00
2013-4-28,85.0,78.9,72.0,68.0,65.3,62.0,74,63,55,30.06,29.97,11,7,19,0.00
2013-4-29,86.0,79.1,74.0,69.0,66.9,63.0,77,67,55,30.03,29.95,12,8,18,0.00
2013-4-30,84.0,78.4,73.0,70.0,66.6,63.0,83,68,57,30.06,29.97,17,9,27,0.00
2013-5-1,83.0,77.8,73.0,66.0,63.9,62.0,70,63,52,30.09,30.01,22,15,35,0.00
2013-5-2,83.0,77.6,73.0,66.0,63.6,58.0,75,63,52,30.10,30.04,23,17,40,0.00
2013-5-3,82.0,76.9,73.0,65.0,62.9,61.0,70,63,53,30.09,30.00,19,14,34,0.00
2013-5-4,86.0,77.5,71.0,68.0,64.7,61.0,74,65,54,30.04,29.94,16,9,25,0.00
2013-5-5,84.0,75.9,70.0,70.0,67.2,64.0,87,75,56,29.99,29.91,14,8,26,0.22
2013-5-6,82.0,75.3,70.0,72.0,66.1,55.0,88,74,59,30.00,29.90,7,4,14,1.14
2013-5-7,84.0,77.9,72.0,69.0,66.5,63.0,79,69,57,30.01,29.93,10,6,17,0.92
2013-5-8,86.0,78.6,72.0,70.0,66.9,64.0,77,68,57,30.05,29.96,9,5,15,0.00
2013-5-9,86.0,79.2,73.0,70.0,67.8,66.0,82,69,54,30.10,30.00,10,5,17,0.00
2013-5-10,86.0,78.6,74.0,69.0,65.6,-99.9,80,67,54,30.12,30.03,16,10,27,0.00
2013-5-11,82.0,76.6,73.0,69.0,66.4,62.0,78,71,62,30.11,30.03,20,14,36,0.00
2013-5-12,81.0,76.8,73.0,70.0,66.6,64.0,76,71,62,30.11,30.02,16,11,34,0.00
2013-5-13,88.0,80.2,73.0,68.0,63.5,59.0,76,58,41,30.08,30.01,19,13,32,0.00
2013-5-14,85.0,79.6,75.0,66.0,63.7,61.0,68,59,50,30.12,30.04,21,16,39,0.00
2013-5-15,85.0,79.2,75.0,66.0,63.7,59.0,70,60,48,30.15,30.07,22,16,39,0.00
2013-5-16,86.0,74.2,75.0,65.0,42.3,-99.9,70,57,33,30.14,30.04,21,16,39,0.00
2013-5-17,84.0,78.0,75.0,65.0,56.6,-99.9,69,59,44,30.10,30.00,20,16,40,0.00
2013-5-18,83.0,78.0,73.0,67.0,63.3,58.0,69,61,49,30.06,29.98,14,10,32,0.00
2013-5-19,85.0,78.1,71.0,67.0,64.7,62.0,79,64,55,30.02,29.93,10,7,19,0.00
2013-5-20,86.0,77.8,70.0,67.0,64.9,63.0,81,65,49,30.02,29.93,10,7,18,0.00
2013-5-21,87.0,79.0,71.0,68.0,65.8,63.0,79,65,50,30.04,29.95,14,6,26,0.05
2013-5-22,87.0,80.7,76.0,71.0,67.7,65.0,81,66,54,30.08,29.97,9,5,18,0.19
2013-5-23,85.0,79.0,74.0,71.0,68.2,65.0,80,70,59,30.07,29.99,19,12,33,0.19
2013-5-24,84.0,79.0,74.0,68.0,65.2,62.0,72,63,53,30.09,30.01,19,14,33,0.00
2013-5-25,84.0,77.9,73.0,67.0,64.7,62.0,75,64,51,30.10,30.02,20,12,36,0.02
2013-5-26,84.0,79.0,74.0,68.0,64.8,63.0,72,62,54,30.11,30.02,20,17,36,0.02
2013-5-27,84.0,78.3,75.0,69.0,64.8,62.0,76,63,48,30.12,30.04,18,15,34,0.13
2013-5-28,84.0,78.2,74.0,69.0,66.7,64.0,75,68,56,30.11,30.04,18,13,29,0.13
2013-5-29,85.0,79.0,75.0,70.0,67.3,64.0,79,68,59,30.10,30.03,18,13,31,0.00
2013-5-30,85.0,79.5,75.0,69.0,66.3,64.0,73,64,55,30.06,29.96,19,13,31,0.00
2013-5-31,84.0,79.2,75.0,70.0,67.2,65.0,77,67,58,30.06,29.97,20,15,37,0.00
2013-6-1,86.0,80.4,75.0,70.0,66.6,62.0,71,63,52,30.11,30.00,20,16,39,0.00
2013-6-2,85.0,79.9,76.0,69.0,66.6,64.0,75,64,55,30.10,30.03,22,15,38,0.00
2013-6-3,85.0,79.5,76.0,67.0,63.5,59.0,69,59,47,30.11,30.02,23,18,41,0.00
2013-6-4,85.0,79.7,75.0,67.0,63.4,59.0,67,58,44,30.07,29.98,23,17,39,0.00
2013-6-5,86.0,79.1,74.0,67.0,62.4,59.0,66,57,45,30.07,29.99,20,14,38,0.00
2013-6-6,86.0,79.1,74.0,67.0,62.5,60.0,69,57,43,30.07,29.96,22,15,37,0.00
2013-6-7,85.0,78.6,73.0,64.0,61.2,58.0,68,56,42,30.06,29.97,23,15,42,0.00
2013-6-8,84.0,78.8,74.0,66.0,63.9,60.0,73,60,47,30.08,29.99,20,15,34,0.00
2013-6-9,86.0,78.9,74.0,67.0,64.1,62.0,72,61,46,30.10,30.02,19,15,32,0.00
2013-6-10,84.0,78.5,73.0,67.0,64.7,62.0,70,63,54,30.08,30.01,20,15,33,0.00
2013-6-11,84.0,79.0,75.0,67.0,64.4,61.0,71,62,49,30.05,29.97,21,16,34,0.00
2013-6-12,85.0,79.4,75.0,67.0,64.1,59.0,71,60,43,30.11,30.01,22,17,38,0.00
2013-6-13,85.0,79.3,75.0,67.0,64.5,62.0,72,61,47,30.12,30.04,23,18,40,0.00
2013-6-14,84.0,78.7,73.0,67.0,64.3,62.0,77,62,50,30.11,30.00,22,17,39,0.00
2013-6-15,85.0,79.1,73.0,66.0,61.7,59.0,67,56,43,30.04,29.95,19,14,33,0.00
2013-6-16,84.0,78.8,74.0,66.0,62.4,59.0,68,58,46,30.05,29.96,20,15,36,0.00
2013-6-17,87.0,79.4,75.0,66.0,63.1,60.0,70,58,44,30.10,30.00,19,16,34,0.00
2013-6-18,85.0,79.6,75.0,67.0,65.1,63.0,70,62,51,30.09,30.00,22,17,39,0.00
2013-6-19,84.0,78.9,75.0,67.0,64.6,61.0,73,62,51,30.09,30.02,21,16,36,0.00
2013-6-20,82.0,75.8,73.0,66.0,63.6,62.0,72,66,57,30.06,30.01,14,8,23,0.00